2-й Городок

Карта отелей и гостиниц, располагающихся рядом с аэропортом 2-й Городок :

2-й Городок Курганская область 56° 2' 17.9988" N, 63° 56' 30.0012" E
2-й Городок Курганская область 56° 2' 17.9988" N, 63° 56' 30.0012" E
Код аэродрома ИКАО: 
H498
Код аэродрома RU: 
Х498
Координаты: 
N56.03833° E063.94167°
Превышение над уровнем моря : 
110
Основная полоса: 
Курс магнитный: 
Длина основной ВПП: 
50
Ширина основной ВПП: 
50
Покрытие основной ВПП: 
Твёрдое (бетон)
Освещение ВПП: 
Нет
Тип: 
Вертодром
Класс аэродрома: 
Принадлежность: 
МО
Статус: 
Недействующий
Сайт: 
E-mail аэродрома: 
Страна: 
Россия
Регион: 
Курганская область
Город: 
Дополнительная информация: 

Найти трансфер

С помощью этой формы Вы можете найти трансфер из аэропорта 2-й Городок в город, аэропорт или вокзал:

Карта места

Javascript is required to view this map.

Погода в аэропортах:

Авиационная погода в Каяани

Регион: 
Погода METAR: 
EFKI 270720Z AUTO 09007KT 050V110 3900 BR OVC001 10/10 Q1022
Время наблюдения: 
2020-09-27T07:20:00Z
Температура C: 
10.0
Точка росы: 
10.0
Направление ветра: 
90
Скорость ветра (узлы): 
7
Метеорологическая видимость: 
2.42
Явления погоды: 
BR
Условия полета: 
LIFR

Авиационная погода в Перми

Регион: 
Погода METAR: 
USPP 270730Z VRB01MPS 5000 FU NSC 15/08 Q1033 R21/090060 NOSIG RMK QFE764
Время наблюдения: 
2020-09-27T07:30:00Z
Температура C: 
15.0
Точка росы: 
8.0
Направление ветра: 
0
Скорость ветра (узлы): 
2
Метеорологическая видимость: 
3.11
Явления погоды: 
FU
Условия полета: 
MVFR
Аэропорт подробнее: 

Авиационная погода в Ботсфьорде

Регион: 
Погода METAR: 
ENBS 251850Z 24021G31KT 9999 VCSH FEW030 09/05 Q0994
Время наблюдения: 
2020-09-25T18:50:00Z
Температура C: 
9.0
Точка росы: 
5.0
Направление ветра: 
240
Скорость ветра (узлы): 
21
Метеорологическая видимость: 
6.21
Явления погоды: 
VCSH
Условия полета: 
VFR

Авиационная погода в Виннице

Регион: 
Погода METAR: 
UKWW 270730Z 15004MPS 9999 -SHRA BKN018CB 17/16 Q1002 NOSIG
Время наблюдения: 
2020-09-27T07:30:00Z
Температура C: 
17.0
Точка росы: 
16.0
Направление ветра: 
150
Скорость ветра (узлы): 
8
Метеорологическая видимость: 
6.21
Явления погоды: 
-SHRA
Условия полета: 
MVFR
Аэропорт подробнее: